sensor_id;sensor_type;location;lat;lon;timestamp;P1;durP1;ratioP1;P2;durP2;ratioP2
25663;SDS011;13522;50.018;20.014;2023-03-17T00:00:20;51.85;;;23.10;;
25663;SDS011;13522;50.018;20.014;2023-03-17T00:03:37;41.73;;;21.30;;
25663;SDS011;13522;50.018;20.014;2023-03-17T00:10:05;53.45;;;22.75;;
25663;SDS011;13522;50.018;20.014;2023-03-17T00:13:22;49.10;;;22.78;;
25663;SDS011;13522;50.018;20.014;2023-03-17T00:16:37;48.73;;;22.70;;
25663;SDS011;13522;50.018;20.014;2023-03-17T00:19:51;47.40;;;22.23;;
25663;SDS011;13522;50.018;20.014;2023-03-17T00:23:03;47.93;;;21.93;;
25663;SDS011;13522;50.018;20.014;2023-03-17T00:29:21;43.93;;;22.83;;
25663;SDS011;13522;50.018;20.014;2023-03-17T00:32:35;45.98;;;22.80;;
25663;SDS011;13522;50.018;20.014;2023-03-17T00:35:49;46.03;;;22.23;;
25663;SDS011;13522;50.018;20.014;2023-03-17T00:39:02;48.88;;;23.35;;
25663;SDS011;13522;50.018;20.014;2023-03-17T00:42:22;49.43;;;23.02;;
25663;SDS011;13522;50.018;20.014;2023-03-17T00:45:34;52.00;;;23.38;;
25663;SDS011;13522;50.018;20.014;2023-03-17T00:48:47;56.13;;;23.93;;
25663;SDS011;13522;50.018;20.014;2023-03-17T00:52:00;52.60;;;24.58;;
25663;SDS011;13522;50.018;20.014;2023-03-17T00:55:13;55.98;;;24.88;;
25663;SDS011;13522;50.018;20.014;2023-03-17T00:58:26;54.40;;;25.15;;
25663;SDS011;13522;50.018;20.014;2023-03-17T01:01:40;54.05;;;23.75;;
25663;SDS011;13522;50.018;20.014;2023-03-17T01:04:53;44.48;;;23.68;;
25663;SDS011;13522;50.018;20.014;2023-03-17T01:08:08;55.35;;;25.40;;
25663;SDS011;13522;50.018;20.014;2023-03-17T01:11:21;53.35;;;24.98;;
25663;SDS011;13522;50.018;20.014;2023-03-17T01:14:33;55.28;;;25.08;;
25663;SDS011;13522;50.018;20.014;2023-03-17T01:17:45;49.48;;;22.48;;
25663;SDS011;13522;50.018;20.014;2023-03-17T01:20:59;48.10;;;24.50;;
25663;SDS011;13522;50.018;20.014;2023-03-17T01:24:12;55.65;;;26.33;;
25663;SDS011;13522;50.018;20.014;2023-03-17T01:27:25;52.33;;;26.85;;
25663;SDS011;13522;50.018;20.014;2023-03-17T01:30:40;45.60;;;22.20;;
25663;SDS011;13522;50.018;20.014;2023-03-17T01:33:54;53.48;;;26.98;;
25663;SDS011;13522;50.018;20.014;2023-03-17T01:37:07;55.30;;;27.35;;
25663;SDS011;13522;50.018;20.014;2023-03-17T01:40:24;55.73;;;27.68;;
25663;SDS011;13522;50.018;20.014;2023-03-17T01:43:46;55.85;;;26.30;;
25663;SDS011;13522;50.018;20.014;2023-03-17T01:46:58;55.58;;;26.15;;
25663;SDS011;13522;50.018;20.014;2023-03-17T01:50:10;61.93;;;29.40;;
25663;SDS011;13522;50.018;20.014;2023-03-17T01:53:22;58.03;;;27.73;;
25663;SDS011;13522;50.018;20.014;2023-03-17T01:56:36;60.18;;;29.60;;
25663;SDS011;13522;50.018;20.014;2023-03-17T01:59:53;61.98;;;27.88;;
25663;SDS011;13522;50.018;20.014;2023-03-17T02:03:11;59.85;;;27.68;;
25663;SDS011;13522;50.018;20.014;2023-03-17T02:06:24;58.15;;;26.35;;
25663;SDS011;13522;50.018;20.014;2023-03-17T02:09:39;51.95;;;26.35;;
25663;SDS011;13522;50.018;20.014;2023-03-17T02:12:54;60.53;;;27.33;;
25663;SDS011;13522;50.018;20.014;2023-03-17T02:16:12;52.88;;;26.58;;
25663;SDS011;13522;50.018;20.014;2023-03-17T02:19:25;49.80;;;25.80;;
25663;SDS011;13522;50.018;20.014;2023-03-17T02:22:38;59.85;;;25.43;;
25663;SDS011;13522;50.018;20.014;2023-03-17T02:25:50;50.98;;;25.28;;
25663;SDS011;13522;50.018;20.014;2023-03-17T02:29:04;56.73;;;25.55;;
25663;SDS011;13522;50.018;20.014;2023-03-17T02:32:17;50.68;;;24.43;;
25663;SDS011;13522;50.018;20.014;2023-03-17T02:35:31;52.50;;;24.95;;
25663;SDS011;13522;50.018;20.014;2023-03-17T02:38:45;54.93;;;25.68;;
25663;SDS011;13522;50.018;20.014;2023-03-17T02:41:57;51.25;;;24.00;;
25663;SDS011;13522;50.018;20.014;2023-03-17T02:45:11;52.28;;;24.58;;
25663;SDS011;13522;50.018;20.014;2023-03-17T02:48:24;57.60;;;24.80;;
25663;SDS011;13522;50.018;20.014;2023-03-17T02:51:37;48.45;;;22.30;;
25663;SDS011;13522;50.018;20.014;2023-03-17T02:54:49;51.10;;;25.25;;
25663;SDS011;13522;50.018;20.014;2023-03-17T02:58:01;53.03;;;24.10;;
25663;SDS011;13522;50.018;20.014;2023-03-17T03:01:13;49.73;;;24.55;;
25663;SDS011;13522;50.018;20.014;2023-03-17T03:04:26;50.35;;;24.58;;
25663;SDS011;13522;50.018;20.014;2023-03-17T03:07:39;50.88;;;25.13;;
25663;SDS011;13522;50.018;20.014;2023-03-17T03:10:51;47.48;;;23.23;;
25663;SDS011;13522;50.018;20.014;2023-03-17T03:14:06;47.90;;;23.70;;
25663;SDS011;13522;50.018;20.014;2023-03-17T03:17:18;47.65;;;22.73;;
25663;SDS011;13522;50.018;20.014;2023-03-17T03:20:31;45.35;;;23.23;;
25663;SDS011;13522;50.018;20.014;2023-03-17T03:23:43;49.58;;;24.13;;
25663;SDS011;13522;50.018;20.014;2023-03-17T03:26:55;49.98;;;23.75;;
25663;SDS011;13522;50.018;20.014;2023-03-17T03:30:10;49.55;;;24.38;;
25663;SDS011;13522;50.018;20.014;2023-03-17T03:33:24;46.98;;;22.60;;
25663;SDS011;13522;50.018;20.014;2023-03-17T03:36:37;46.18;;;21.90;;
25663;SDS011;13522;50.018;20.014;2023-03-17T03:39:49;42.58;;;22.45;;
25663;SDS011;13522;50.018;20.014;2023-03-17T03:43:02;47.88;;;23.08;;
25663;SDS011;13522;50.018;20.014;2023-03-17T03:46:17;52.23;;;25.75;;
25663;SDS011;13522;50.018;20.014;2023-03-17T03:49:30;55.90;;;24.90;;
25663;SDS011;13522;50.018;20.014;2023-03-17T03:52:42;58.28;;;27.28;;
25663;SDS011;13522;50.018;20.014;2023-03-17T03:55:55;48.70;;;25.00;;
25663;SDS011;13522;50.018;20.014;2023-03-17T03:59:07;57.20;;;26.33;;
25663;SDS011;13522;50.018;20.014;2023-03-17T04:02:19;63.13;;;30.53;;
25663;SDS011;13522;50.018;20.014;2023-03-17T04:05:32;56.90;;;26.95;;
25663;SDS011;13522;50.018;20.014;2023-03-17T04:08:44;63.88;;;30.33;;
25663;SDS011;13522;50.018;20.014;2023-03-17T04:11:56;67.63;;;34.58;;
25663;SDS011;13522;50.018;20.014;2023-03-17T04:15:12;74.25;;;36.23;;
25663;SDS011;13522;50.018;20.014;2023-03-17T04:18:27;78.83;;;37.10;;
25663;SDS011;13522;50.018;20.014;2023-03-17T04:21:39;81.85;;;39.40;;
25663;SDS011;13522;50.018;20.014;2023-03-17T04:24:52;78.75;;;38.93;;
25663;SDS011;13522;50.018;20.014;2023-03-17T04:28:05;83.85;;;40.73;;
25663;SDS011;13522;50.018;20.014;2023-03-17T04:31:17;79.30;;;39.08;;
25663;SDS011;13522;50.018;20.014;2023-03-17T04:34:30;80.88;;;39.00;;
25663;SDS011;13522;50.018;20.014;2023-03-17T04:37:42;82.65;;;41.05;;
25663;SDS011;13522;50.018;20.014;2023-03-17T04:40:54;88.80;;;39.38;;
25663;SDS011;13522;50.018;20.014;2023-03-17T04:44:07;77.53;;;37.60;;
25663;SDS011;13522;50.018;20.014;2023-03-17T04:47:21;75.08;;;36.50;;
25663;SDS011;13522;50.018;20.014;2023-03-17T04:50:34;80.83;;;38.50;;
25663;SDS011;13522;50.018;20.014;2023-03-17T04:53:46;86.30;;;39.40;;
25663;SDS011;13522;50.018;20.014;2023-03-17T04:56:57;87.00;;;40.05;;
25663;SDS011;13522;50.018;20.014;2023-03-17T05:00:13;82.15;;;38.80;;
25663;SDS011;13522;50.018;20.014;2023-03-17T05:03:30;73.68;;;37.35;;
25663;SDS011;13522;50.018;20.014;2023-03-17T05:06:43;75.68;;;37.85;;
25663;SDS011;13522;50.018;20.014;2023-03-17T05:09:55;83.80;;;40.38;;
25663;SDS011;13522;50.018;20.014;2023-03-17T05:13:07;81.98;;;39.38;;
25663;SDS011;13522;50.018;20.014;2023-03-17T05:16:19;74.10;;;35.78;;
25663;SDS011;13522;50.018;20.014;2023-03-17T05:19:32;86.03;;;40.15;;
25663;SDS011;13522;50.018;20.014;2023-03-17T05:22:44;86.18;;;40.40;;
25663;SDS011;13522;50.018;20.014;2023-03-17T05:25:56;81.95;;;41.15;;
25663;SDS011;13522;50.018;20.014;2023-03-17T05:29:10;73.30;;;38.98;;
25663;SDS011;13522;50.018;20.014;2023-03-17T05:32:22;78.83;;;38.03;;
25663;SDS011;13522;50.018;20.014;2023-03-17T05:35:35;79.58;;;39.53;;
25663;SDS011;13522;50.018;20.014;2023-03-17T05:38:47;242.83;;;106.43;;
25663;SDS011;13522;50.018;20.014;2023-03-17T05:42:00;127.38;;;56.73;;
25663;SDS011;13522;50.018;20.014;2023-03-17T05:45:12;91.28;;;40.90;;
25663;SDS011;13522;50.018;20.014;2023-03-17T05:48:25;74.05;;;40.68;;
25663;SDS011;13522;50.018;20.014;2023-03-17T05:51:38;78.48;;;39.80;;
25663;SDS011;13522;50.018;20.014;2023-03-17T05:54:50;77.23;;;41.53;;
25663;SDS011;13522;50.018;20.014;2023-03-17T05:58:03;73.10;;;38.03;;
25663;SDS011;13522;50.018;20.014;2023-03-17T06:01:16;73.08;;;39.40;;
25663;SDS011;13522;50.018;20.014;2023-03-17T06:04:28;76.63;;;40.45;;
25663;SDS011;13522;50.018;20.014;2023-03-17T06:07:41;199.45;;;89.60;;
25663;SDS011;13522;50.018;20.014;2023-03-17T06:10:55;92.72;;;43.80;;
25663;SDS011;13522;50.018;20.014;2023-03-17T06:14:08;81.47;;;40.08;;
25663;SDS011;13522;50.018;20.014;2023-03-17T06:17:20;71.53;;;37.75;;
25663;SDS011;13522;50.018;20.014;2023-03-17T06:20:33;75.43;;;38.78;;
25663;SDS011;13522;50.018;20.014;2023-03-17T06:23:45;87.75;;;38.25;;
25663;SDS011;13522;50.018;20.014;2023-03-17T06:26:57;125.65;;;59.28;;
25663;SDS011;13522;50.018;20.014;2023-03-17T06:30:11;108.28;;;49.45;;
25663;SDS011;13522;50.018;20.014;2023-03-17T06:33:24;68.40;;;36.80;;
25663;SDS011;13522;50.018;20.014;2023-03-17T06:36:37;75.93;;;36.50;;
25663;SDS011;13522;50.018;20.014;2023-03-17T06:39:50;72.48;;;35.35;;
25663;SDS011;13522;50.018;20.014;2023-03-17T06:43:04;65.58;;;33.95;;
25663;SDS011;13522;50.018;20.014;2023-03-17T06:46:16;63.03;;;33.28;;
25663;SDS011;13522;50.018;20.014;2023-03-17T06:49:28;68.43;;;34.90;;
25663;SDS011;13522;50.018;20.014;2023-03-17T06:52:41;52.78;;;29.28;;
25663;SDS011;13522;50.018;20.014;2023-03-17T06:55:53;56.78;;;28.70;;
25663;SDS011;13522;50.018;20.014;2023-03-17T06:59:06;53.08;;;28.18;;
25663;SDS011;13522;50.018;20.014;2023-03-17T07:02:18;52.90;;;28.18;;
25663;SDS011;13522;50.018;20.014;2023-03-17T07:05:31;55.75;;;26.48;;
25663;SDS011;13522;50.018;20.014;2023-03-17T07:08:44;46.58;;;25.90;;
25663;SDS011;13522;50.018;20.014;2023-03-17T07:11:56;50.33;;;27.03;;
25663;SDS011;13522;50.018;20.014;2023-03-17T07:15:11;46.83;;;25.70;;
25663;SDS011;13522;50.018;20.014;2023-03-17T07:18:26;48.50;;;25.85;;
25663;SDS011;13522;50.018;20.014;2023-03-17T07:21:39;45.28;;;25.03;;
25663;SDS011;13522;50.018;20.014;2023-03-17T07:24:56;48.53;;;24.68;;
25663;SDS011;13522;50.018;20.014;2023-03-17T07:28:12;46.60;;;24.25;;
25663;SDS011;13522;50.018;20.014;2023-03-17T07:31:25;50.05;;;22.38;;
25663;SDS011;13522;50.018;20.014;2023-03-17T07:34:40;39.95;;;22.28;;
25663;SDS011;13522;50.018;20.014;2023-03-17T07:37:54;44.33;;;21.58;;
25663;SDS011;13522;50.018;20.014;2023-03-17T07:41:08;42.05;;;21.88;;
25663;SDS011;13522;50.018;20.014;2023-03-17T07:44:20;44.03;;;22.78;;
25663;SDS011;13522;50.018;20.014;2023-03-17T07:47:33;40.80;;;22.10;;
25663;SDS011;13522;50.018;20.014;2023-03-17T07:50:45;40.98;;;21.05;;
25663;SDS011;13522;50.018;20.014;2023-03-17T07:53:58;37.28;;;21.00;;
25663;SDS011;13522;50.018;20.014;2023-03-17T07:57:11;63.83;;;33.88;;
25663;SDS011;13522;50.018;20.014;2023-03-17T08:00:24;81.78;;;43.43;;
25663;SDS011;13522;50.018;20.014;2023-03-17T08:03:38;45.15;;;24.65;;
25663;SDS011;13522;50.018;20.014;2023-03-17T08:06:51;40.55;;;22.03;;
25663;SDS011;13522;50.018;20.014;2023-03-17T08:10:06;39.28;;;19.75;;
25663;SDS011;13522;50.018;20.014;2023-03-17T08:13:21;35.78;;;18.88;;
25663;SDS011;13522;50.018;20.014;2023-03-17T08:16:33;35.08;;;17.25;;
25663;SDS011;13522;50.018;20.014;2023-03-17T08:19:46;29.50;;;15.08;;
25663;SDS011;13522;50.018;20.014;2023-03-17T08:22:58;15.33;;;9.13;;
25663;SDS011;13522;50.018;20.014;2023-03-17T08:26:10;12.70;;;7.20;;
25663;SDS011;13522;50.018;20.014;2023-03-17T08:29:23;13.25;;;7.30;;
25663;SDS011;13522;50.018;20.014;2023-03-17T08:32:36;13.28;;;7.00;;
25663;SDS011;13522;50.018;20.014;2023-03-17T08:35:49;15.15;;;8.75;;
25663;SDS011;13522;50.018;20.014;2023-03-17T08:39:02;13.38;;;6.78;;
25663;SDS011;13522;50.018;20.014;2023-03-17T08:42:15;17.70;;;9.95;;
25663;SDS011;13522;50.018;20.014;2023-03-17T08:45:27;13.03;;;7.15;;
25663;SDS011;13522;50.018;20.014;2023-03-17T08:48:40;12.10;;;6.93;;
25663;SDS011;13522;50.018;20.014;2023-03-17T08:51:54;13.18;;;6.40;;
25663;SDS011;13522;50.018;20.014;2023-03-17T08:55:07;9.85;;;6.03;;
25663;SDS011;13522;50.018;20.014;2023-03-17T08:58:21;15.55;;;6.68;;
25663;SDS011;13522;50.018;20.014;2023-03-17T09:01:33;13.60;;;6.35;;
25663;SDS011;13522;50.018;20.014;2023-03-17T09:04:48;10.35;;;5.50;;
25663;SDS011;13522;50.018;20.014;2023-03-17T09:08:00;11.63;;;5.95;;
25663;SDS011;13522;50.018;20.014;2023-03-17T09:11:14;9.38;;;5.00;;
25663;SDS011;13522;50.018;20.014;2023-03-17T09:14:27;10.40;;;6.25;;
25663;SDS011;13522;50.018;20.014;2023-03-17T09:17:42;20.30;;;11.08;;
25663;SDS011;13522;50.018;20.014;2023-03-17T09:20:54;14.73;;;8.43;;
25663;SDS011;13522;50.018;20.014;2023-03-17T09:24:06;14.33;;;8.20;;
25663;SDS011;13522;50.018;20.014;2023-03-17T09:27:19;12.88;;;4.70;;
25663;SDS011;13522;50.018;20.014;2023-03-17T09:30:32;6.90;;;3.90;;
25663;SDS011;13522;50.018;20.014;2023-03-17T09:33:46;9.65;;;4.13;;
25663;SDS011;13522;50.018;20.014;2023-03-17T09:36:59;6.73;;;4.10;;
25663;SDS011;13522;50.018;20.014;2023-03-17T09:40:14;7.33;;;3.98;;
25663;SDS011;13522;50.018;20.014;2023-03-17T09:43:33;6.38;;;3.68;;
25663;SDS011;13522;50.018;20.014;2023-03-17T09:46:52;7.78;;;3.80;;
25663;SDS011;13522;50.018;20.014;2023-03-17T09:50:10;7.50;;;3.98;;
25663;SDS011;13522;50.018;20.014;2023-03-17T09:53:27;8.08;;;4.05;;
25663;SDS011;13522;50.018;20.014;2023-03-17T09:56:44;7.73;;;4.40;;
25663;SDS011;13522;50.018;20.014;2023-03-17T10:00:02;23.02;;;13.38;;
25663;SDS011;13522;50.018;20.014;2023-03-17T10:03:22;27.28;;;15.53;;
25663;SDS011;13522;50.018;20.014;2023-03-17T10:06:36;7.50;;;4.10;;
25663;SDS011;13522;50.018;20.014;2023-03-17T10:09:55;8.20;;;4.38;;
25663;SDS011;13522;50.018;20.014;2023-03-17T10:13:14;8.10;;;4.75;;
25663;SDS011;13522;50.018;20.014;2023-03-17T10:16:39;10.48;;;4.78;;
25663;SDS011;13522;50.018;20.014;2023-03-17T10:19:59;10.03;;;5.25;;
25663;SDS011;13522;50.018;20.014;2023-03-17T10:23:15;12.73;;;7.05;;
25663;SDS011;13522;50.018;20.014;2023-03-17T10:26:32;22.53;;;10.53;;
25663;SDS011;13522;50.018;20.014;2023-03-17T10:29:49;12.93;;;7.63;;
25663;SDS011;13522;50.018;20.014;2023-03-17T10:33:01;11.53;;;5.80;;
25663;SDS011;13522;50.018;20.014;2023-03-17T10:36:16;8.75;;;5.15;;
25663;SDS011;13522;50.018;20.014;2023-03-17T10:39:45;10.23;;;5.80;;
25663;SDS011;13522;50.018;20.014;2023-03-17T10:43:02;9.85;;;5.75;;
25663;SDS011;13522;50.018;20.014;2023-03-17T10:46:19;9.53;;;5.03;;
25663;SDS011;13522;50.018;20.014;2023-03-17T10:49:35;10.70;;;5.23;;
25663;SDS011;13522;50.018;20.014;2023-03-17T10:52:50;8.50;;;4.60;;
25663;SDS011;13522;50.018;20.014;2023-03-17T10:56:08;6.65;;;4.30;;
25663;SDS011;13522;50.018;20.014;2023-03-17T10:59:29;19.93;;;13.08;;
25663;SDS011;13522;50.018;20.014;2023-03-17T11:02:49;15.80;;;8.30;;
25663;SDS011;13522;50.018;20.014;2023-03-17T11:06:05;11.30;;;5.95;;
25663;SDS011;13522;50.018;20.014;2023-03-17T11:09:20;7.78;;;4.43;;
25663;SDS011;13522;50.018;20.014;2023-03-17T11:12:36;10.25;;;4.70;;
25663;SDS011;13522;50.018;20.014;2023-03-17T11:19:04;6.48;;;3.40;;
25663;SDS011;13522;50.018;20.014;2023-03-17T11:22:23;7.85;;;4.15;;
25663;SDS011;13522;50.018;20.014;2023-03-17T11:25:41;9.40;;;4.53;;
25663;SDS011;13522;50.018;20.014;2023-03-17T11:29:05;7.55;;;4.53;;
25663;SDS011;13522;50.018;20.014;2023-03-17T11:32:33;9.03;;;4.60;;
25663;SDS011;13522;50.018;20.014;2023-03-17T11:39:04;7.15;;;4.38;;
25663;SDS011;13522;50.018;20.014;2023-03-17T11:42:24;12.23;;;4.58;;
25663;SDS011;13522;50.018;20.014;2023-03-17T11:45:41;16.60;;;9.33;;
25663;SDS011;13522;50.018;20.014;2023-03-17T11:48:59;34.83;;;18.58;;
25663;SDS011;13522;50.018;20.014;2023-03-17T11:52:20;16.23;;;8.43;;
25663;SDS011;13522;50.018;20.014;2023-03-17T11:55:38;9.58;;;4.83;;
25663;SDS011;13522;50.018;20.014;2023-03-17T11:58:56;7.35;;;4.10;;
25663;SDS011;13522;50.018;20.014;2023-03-17T12:02:15;7.20;;;4.08;;
25663;SDS011;13522;50.018;20.014;2023-03-17T12:05:35;8.45;;;4.18;;
25663;SDS011;13522;50.018;20.014;2023-03-17T12:08:51;8.10;;;4.18;;
25663;SDS011;13522;50.018;20.014;2023-03-17T12:12:10;6.30;;;3.95;;
25663;SDS011;13522;50.018;20.014;2023-03-17T12:15:27;6.58;;;4.48;;
25663;SDS011;13522;50.018;20.014;2023-03-17T12:18:45;6.65;;;4.03;;
25663;SDS011;13522;50.018;20.014;2023-03-17T12:22:04;6.93;;;3.90;;
25663;SDS011;13522;50.018;20.014;2023-03-17T12:25:26;10.85;;;6.20;;
25663;SDS011;13522;50.018;20.014;2023-03-17T12:28:43;10.80;;;5.40;;
25663;SDS011;13522;50.018;20.014;2023-03-17T12:32:02;10.00;;;5.43;;
25663;SDS011;13522;50.018;20.014;2023-03-17T12:35:25;9.90;;;4.60;;
25663;SDS011;13522;50.018;20.014;2023-03-17T12:38:42;8.73;;;5.30;;
25663;SDS011;13522;50.018;20.014;2023-03-17T12:42:03;9.30;;;5.30;;
25663;SDS011;13522;50.018;20.014;2023-03-17T12:45:39;8.63;;;4.30;;
25663;SDS011;13522;50.018;20.014;2023-03-17T12:49:06;8.83;;;4.20;;
25663;SDS011;13522;50.018;20.014;2023-03-17T12:52:59;8.90;;;4.80;;
25663;SDS011;13522;50.018;20.014;2023-03-17T12:56:34;7.60;;;4.55;;
25663;SDS011;13522;50.018;20.014;2023-03-17T12:59:56;10.83;;;4.15;;
25663;SDS011;13522;50.018;20.014;2023-03-17T13:03:16;10.40;;;4.83;;
25663;SDS011;13522;50.018;20.014;2023-03-17T13:06:36;10.88;;;4.75;;
25663;SDS011;13522;50.018;20.014;2023-03-17T13:13:55;8.80;;;4.13;;
25663;SDS011;13522;50.018;20.014;2023-03-17T13:17:32;10.15;;;5.53;;
25663;SDS011;13522;50.018;20.014;2023-03-17T13:20:49;7.43;;;4.88;;
25663;SDS011;13522;50.018;20.014;2023-03-17T13:24:21;9.75;;;4.88;;
25663;SDS011;13522;50.018;20.014;2023-03-17T13:27:55;10.05;;;5.00;;
25663;SDS011;13522;50.018;20.014;2023-03-17T13:31:35;9.43;;;4.38;;
25663;SDS011;13522;50.018;20.014;2023-03-17T13:34:48;14.08;;;4.85;;
25663;SDS011;13522;50.018;20.014;2023-03-17T13:38:09;9.50;;;4.90;;
25663;SDS011;13522;50.018;20.014;2023-03-17T13:45:37;9.05;;;4.40;;
25663;SDS011;13522;50.018;20.014;2023-03-17T13:48:51;8.05;;;4.15;;
25663;SDS011;13522;50.018;20.014;2023-03-17T13:52:06;6.33;;;4.10;;
25663;SDS011;13522;50.018;20.014;2023-03-17T13:55:33;10.08;;;4.35;;
25663;SDS011;13522;50.018;20.014;2023-03-17T13:58:50;13.80;;;5.20;;
25663;SDS011;13522;50.018;20.014;2023-03-17T14:02:12;14.68;;;4.83;;
25663;SDS011;13522;50.018;20.014;2023-03-17T14:05:28;7.35;;;3.98;;
25663;SDS011;13522;50.018;20.014;2023-03-17T14:08:45;7.90;;;4.13;;
25663;SDS011;13522;50.018;20.014;2023-03-17T14:12:01;11.28;;;5.70;;
25663;SDS011;13522;50.018;20.014;2023-03-17T14:15:23;8.30;;;4.23;;
25663;SDS011;13522;50.018;20.014;2023-03-17T14:18:38;9.28;;;5.20;;
25663;SDS011;13522;50.018;20.014;2023-03-17T14:21:53;11.00;;;5.38;;
25663;SDS011;13522;50.018;20.014;2023-03-17T14:25:14;9.93;;;4.05;;
25663;SDS011;13522;50.018;20.014;2023-03-17T14:28:29;7.90;;;4.05;;
25663;SDS011;13522;50.018;20.014;2023-03-17T14:31:46;10.88;;;4.88;;
25663;SDS011;13522;50.018;20.014;2023-03-17T14:35:04;7.93;;;4.00;;
25663;SDS011;13522;50.018;20.014;2023-03-17T14:38:23;8.70;;;4.03;;
25663;SDS011;13522;50.018;20.014;2023-03-17T14:41:38;8.20;;;3.70;;
25663;SDS011;13522;50.018;20.014;2023-03-17T14:44:58;10.28;;;5.33;;
25663;SDS011;13522;50.018;20.014;2023-03-17T14:48:12;109.25;;;49.98;;
25663;SDS011;13522;50.018;20.014;2023-03-17T14:51:28;14.68;;;5.25;;
25663;SDS011;13522;50.018;20.014;2023-03-17T14:54:43;11.00;;;4.23;;
25663;SDS011;13522;50.018;20.014;2023-03-17T14:58:04;11.70;;;3.73;;
25663;SDS011;13522;50.018;20.014;2023-03-17T15:01:21;7.83;;;3.48;;
25663;SDS011;13522;50.018;20.014;2023-03-17T15:04:50;8.88;;;4.45;;
25663;SDS011;13522;50.018;20.014;2023-03-17T15:08:03;7.63;;;3.88;;
25663;SDS011;13522;50.018;20.014;2023-03-17T15:11:49;8.55;;;4.28;;
25663;SDS011;13522;50.018;20.014;2023-03-17T15:15:04;9.35;;;3.93;;
25663;SDS011;13522;50.018;20.014;2023-03-17T15:18:28;7.60;;;3.73;;
25663;SDS011;13522;50.018;20.014;2023-03-17T15:21:41;14.13;;;4.35;;
25663;SDS011;13522;50.018;20.014;2023-03-17T15:24:59;8.03;;;3.80;;
25663;SDS011;13522;50.018;20.014;2023-03-17T15:28:25;10.85;;;6.18;;
25663;SDS011;13522;50.018;20.014;2023-03-17T15:31:40;32.65;;;17.53;;
25663;SDS011;13522;50.018;20.014;2023-03-17T15:34:53;13.38;;;5.90;;
25663;SDS011;13522;50.018;20.014;2023-03-17T15:38:09;9.00;;;4.40;;
25663;SDS011;13522;50.018;20.014;2023-03-17T15:41:22;11.15;;;4.53;;
25663;SDS011;13522;50.018;20.014;2023-03-17T15:44:34;10.98;;;4.50;;
25663;SDS011;13522;50.018;20.014;2023-03-17T15:47:46;13.90;;;4.50;;
25663;SDS011;13522;50.018;20.014;2023-03-17T15:50:59;13.85;;;4.78;;
25663;SDS011;13522;50.018;20.014;2023-03-17T15:54:14;57.90;;;25.75;;
25663;SDS011;13522;50.018;20.014;2023-03-17T15:57:26;19.50;;;8.98;;
25663;SDS011;13522;50.018;20.014;2023-03-17T16:00:38;14.85;;;6.15;;
25663;SDS011;13522;50.018;20.014;2023-03-17T16:03:52;11.70;;;5.70;;
25663;SDS011;13522;50.018;20.014;2023-03-17T16:07:08;15.00;;;6.20;;
25663;SDS011;13522;50.018;20.014;2023-03-17T16:10:22;10.98;;;6.13;;
25663;SDS011;13522;50.018;20.014;2023-03-17T16:13:37;12.63;;;5.68;;
25663;SDS011;13522;50.018;20.014;2023-03-17T16:16:50;12.30;;;5.80;;
25663;SDS011;13522;50.018;20.014;2023-03-17T16:20:02;12.28;;;5.50;;
25663;SDS011;13522;50.018;20.014;2023-03-17T16:23:20;14.95;;;6.73;;
25663;SDS011;13522;50.018;20.014;2023-03-17T16:26:35;15.30;;;7.68;;
25663;SDS011;13522;50.018;20.014;2023-03-17T16:29:48;16.48;;;6.55;;
25663;SDS011;13522;50.018;20.014;2023-03-17T16:33:01;16.53;;;7.25;;
25663;SDS011;13522;50.018;20.014;2023-03-17T16:36:22;14.50;;;7.35;;
25663;SDS011;13522;50.018;20.014;2023-03-17T16:39:35;14.30;;;7.65;;
25663;SDS011;13522;50.018;20.014;2023-03-17T16:42:49;16.35;;;7.43;;
25663;SDS011;13522;50.018;20.014;2023-03-17T16:46:03;15.13;;;7.30;;
25663;SDS011;13522;50.018;20.014;2023-03-17T16:49:18;16.70;;;8.40;;
25663;SDS011;13522;50.018;20.014;2023-03-17T16:52:30;15.55;;;8.23;;
25663;SDS011;13522;50.018;20.014;2023-03-17T16:55:43;24.35;;;12.73;;
25663;SDS011;13522;50.018;20.014;2023-03-17T16:58:56;24.95;;;10.58;;
25663;SDS011;13522;50.018;20.014;2023-03-17T17:02:13;19.13;;;10.25;;
25663;SDS011;13522;50.018;20.014;2023-03-17T17:05:27;20.13;;;9.75;;
25663;SDS011;13522;50.018;20.014;2023-03-17T17:08:40;20.70;;;10.23;;
25663;SDS011;13522;50.018;20.014;2023-03-17T17:11:54;25.58;;;12.50;;
25663;SDS011;13522;50.018;20.014;2023-03-17T17:15:09;26.03;;;11.25;;
25663;SDS011;13522;50.018;20.014;2023-03-17T17:18:24;26.05;;;11.25;;
25663;SDS011;13522;50.018;20.014;2023-03-17T17:21:39;21.93;;;11.48;;
25663;SDS011;13522;50.018;20.014;2023-03-17T17:24:52;23.13;;;11.55;;
25663;SDS011;13522;50.018;20.014;2023-03-17T17:28:04;20.73;;;11.60;;
25663;SDS011;13522;50.018;20.014;2023-03-17T17:31:17;23.98;;;12.95;;
25663;SDS011;13522;50.018;20.014;2023-03-17T17:34:30;22.30;;;12.05;;
25663;SDS011;13522;50.018;20.014;2023-03-17T17:37:43;32.03;;;13.88;;
25663;SDS011;13522;50.018;20.014;2023-03-17T17:40:56;26.20;;;13.40;;
25663;SDS011;13522;50.018;20.014;2023-03-17T17:44:12;27.45;;;13.50;;
25663;SDS011;13522;50.018;20.014;2023-03-17T17:47:24;29.03;;;14.68;;
25663;SDS011;13522;50.018;20.014;2023-03-17T17:50:37;26.78;;;13.05;;
25663;SDS011;13522;50.018;20.014;2023-03-17T17:53:50;24.30;;;12.93;;
25663;SDS011;13522;50.018;20.014;2023-03-17T17:57:02;22.23;;;12.33;;
25663;SDS011;13522;50.018;20.014;2023-03-17T18:00:16;28.18;;;13.20;;
25663;SDS011;13522;50.018;20.014;2023-03-17T18:03:29;23.75;;;12.20;;
25663;SDS011;13522;50.018;20.014;2023-03-17T18:06:43;25.85;;;12.75;;
25663;SDS011;13522;50.018;20.014;2023-03-17T18:09:56;26.55;;;13.28;;
25663;SDS011;13522;50.018;20.014;2023-03-17T18:13:09;33.43;;;14.58;;
25663;SDS011;13522;50.018;20.014;2023-03-17T18:16:21;26.50;;;13.18;;
25663;SDS011;13522;50.018;20.014;2023-03-17T18:19:34;26.35;;;13.38;;
25663;SDS011;13522;50.018;20.014;2023-03-17T18:22:47;25.95;;;13.60;;
25663;SDS011;13522;50.018;20.014;2023-03-17T18:26:00;22.95;;;12.10;;
25663;SDS011;13522;50.018;20.014;2023-03-17T18:29:14;21.50;;;11.58;;
25663;SDS011;13522;50.018;20.014;2023-03-17T18:32:26;24.28;;;11.53;;
25663;SDS011;13522;50.018;20.014;2023-03-17T18:35:39;24.03;;;11.28;;
25663;SDS011;13522;50.018;20.014;2023-03-17T18:38:54;22.95;;;11.40;;
25663;SDS011;13522;50.018;20.014;2023-03-17T18:42:07;25.33;;;12.45;;
25663;SDS011;13522;50.018;20.014;2023-03-17T18:45:20;27.85;;;11.63;;
25663;SDS011;13522;50.018;20.014;2023-03-17T18:48:33;25.95;;;13.45;;
25663;SDS011;13522;50.018;20.014;2023-03-17T18:51:45;27.70;;;13.33;;
25663;SDS011;13522;50.018;20.014;2023-03-17T18:54:57;30.75;;;15.60;;
25663;SDS011;13522;50.018;20.014;2023-03-17T18:58:10;32.03;;;15.88;;
25663;SDS011;13522;50.018;20.014;2023-03-17T19:01:22;29.50;;;16.03;;
25663;SDS011;13522;50.018;20.014;2023-03-17T19:04:35;29.50;;;15.00;;
25663;SDS011;13522;50.018;20.014;2023-03-17T19:07:50;37.00;;;16.23;;
25663;SDS011;13522;50.018;20.014;2023-03-17T19:11:02;36.98;;;16.38;;
25663;SDS011;13522;50.018;20.014;2023-03-17T19:14:16;34.65;;;15.28;;